createdAt,value
2018-09-11T00:00:40.628Z,16.70
2018-09-11T00:03:09.191Z,16.60
2018-09-11T00:05:39.779Z,16.60
2018-09-11T00:08:08.398Z,16.60
2018-09-11T00:10:36.648Z,16.60
2018-09-11T00:13:04.787Z,16.60
2018-09-11T00:15:37.568Z,16.60
2018-09-11T00:18:05.911Z,16.50
2018-09-11T00:20:34.450Z,16.50
2018-09-11T00:23:02.989Z,16.50
2018-09-11T00:25:37.427Z,16.50
2018-09-11T00:29:47.377Z,16.40
2018-09-11T00:32:15.771Z,16.40
2018-09-11T00:34:50.926Z,16.40
2018-09-11T00:37:19.310Z,16.40
2018-09-11T00:39:47.631Z,16.40
2018-09-11T00:42:16.231Z,16.40
2018-09-11T00:44:48.823Z,16.40
2018-09-11T00:47:17.200Z,16.30
2018-09-11T00:49:45.609Z,16.30
2018-09-11T00:52:13.989Z,16.30
2018-09-11T00:54:44.331Z,16.30
2018-09-11T00:57:12.713Z,16.30
2018-09-11T00:59:40.925Z,16.30
2018-09-11T01:02:09.328Z,16.20
2018-09-11T01:04:42.758Z,16.30
2018-09-11T01:07:11.285Z,16.20
2018-09-11T01:09:39.778Z,16.20
2018-09-11T01:12:08.258Z,16.20
2018-09-11T01:14:36.760Z,16.20
2018-09-11T01:17:05.152Z,16.20
2018-09-11T01:19:33.458Z,16.20
2018-09-11T01:22:01.648Z,16.20
2018-09-11T01:24:37.302Z,16.20
2018-09-11T01:27:05.716Z,16.20
2018-09-11T01:29:34.233Z,16.20
2018-09-11T01:32:16.704Z,16.20
2018-09-11T01:34:45.141Z,16.20
2018-09-11T01:37:13.648Z,16.20
2018-09-11T01:39:43.162Z,16.20
2018-09-11T01:42:11.785Z,16.10
2018-09-11T01:44:40.481Z,16.20
2018-09-11T01:47:20.624Z,16.10
2018-09-11T01:49:48.921Z,16.10
2018-09-11T01:52:17.438Z,16.10
2018-09-11T01:54:45.801Z,16.20
2018-09-11T01:57:14.331Z,16.20
2018-09-11T01:59:42.729Z,16.20
2018-09-11T02:02:11.245Z,16.20
2018-09-11T02:04:39.545Z,16.20
2018-09-11T02:07:08.147Z,16.10
2018-09-11T02:09:36.442Z,16.10
2018-09-11T02:12:04.850Z,16.10
2018-09-11T02:14:33.244Z,16.10
2018-09-11T02:17:02.766Z,16.00
2018-09-11T02:19:31.146Z,16.00
2018-09-11T02:21:59.328Z,15.90
2018-09-11T02:24:27.872Z,15.90
2018-09-11T02:27:07.114Z,15.80
2018-09-11T02:29:35.404Z,15.80
2018-09-11T02:32:03.992Z,15.80
2018-09-11T02:34:32.307Z,15.70
2018-09-11T02:37:06.424Z,15.70
2018-09-11T02:39:34.934Z,15.60
2018-09-11T02:42:03.429Z,15.60
2018-09-11T02:44:31.968Z,15.50
2018-09-11T02:47:02.589Z,15.50
2018-09-11T02:49:30.754Z,15.40
2018-09-11T02:51:59.500Z,15.30
2018-09-11T02:54:30.128Z,15.20
2018-09-11T02:56:58.331Z,15.20
2018-09-11T02:59:26.727Z,15.10
2018-09-11T03:01:56.223Z,15.10
2018-09-11T03:04:24.532Z,15.10
2018-09-11T03:06:52.936Z,15.10
2018-09-11T03:09:21.454Z,15.10
2018-09-11T03:12:07.239Z,15.10
2018-09-11T03:14:35.522Z,15.10
2018-09-11T03:17:04.025Z,15.00
2018-09-11T03:19:32.662Z,15.10
2018-09-11T03:22:04.454Z,15.10
2018-09-11T03:24:32.833Z,15.10
2018-09-11T03:27:01.203Z,15.10
2018-09-11T03:29:29.492Z,15.10
2018-09-11T03:31:59.923Z,15.10
2018-09-11T03:34:28.348Z,15.10
2018-09-11T03:36:56.856Z,15.10
2018-09-11T03:39:25.267Z,15.10
2018-09-11T03:41:54.754Z,15.10
2018-09-11T03:44:23.281Z,15.10
2018-09-11T03:46:51.587Z,15.10
2018-09-11T03:49:20.733Z,15.10
2018-09-11T03:51:50.021Z,15.00
2018-09-11T03:54:18.742Z,15.00
2018-09-11T03:56:47.132Z,15.00
2018-09-11T03:59:15.656Z,15.00
2018-09-11T04:01:50.267Z,15.00
2018-09-11T04:04:18.662Z,15.00
2018-09-11T04:06:47.125Z,15.00
2018-09-11T04:09:15.466Z,15.00
2018-09-11T04:11:50.210Z,15.10
2018-09-11T04:14:19.274Z,15.10
2018-09-11T04:16:47.694Z,15.10
2018-09-11T04:19:15.999Z,15.10
2018-09-11T04:21:49.509Z,15.10
2018-09-11T04:24:17.921Z,15.20
2018-09-11T04:26:46.537Z,15.20
2018-09-11T04:29:16.460Z,15.20
2018-09-11T04:31:45.061Z,15.20
2018-09-11T04:34:13.687Z,15.20
2018-09-11T04:36:42.169Z,15.30
2018-09-11T04:39:15.757Z,15.30
2018-09-11T04:41:44.176Z,15.30
2018-09-11T04:44:12.475Z,15.30
2018-09-11T04:46:45.396Z,15.30
2018-09-11T04:49:13.596Z,15.30
2018-09-11T04:51:41.854Z,15.30
2018-09-11T04:54:11.618Z,15.30
2018-09-11T04:56:39.979Z,15.30
2018-09-11T04:59:08.318Z,15.40
2018-09-11T05:01:37.015Z,15.40
2018-09-11T05:04:05.624Z,15.40
2018-09-11T05:06:34.030Z,15.40
2018-09-11T05:09:03.873Z,15.40
2018-09-11T05:11:32.198Z,15.50
2018-09-11T05:14:00.444Z,15.50
2018-09-11T05:16:28.951Z,15.50
2018-09-11T05:19:02.486Z,15.50
2018-09-11T05:21:30.757Z,15.50
2018-09-11T05:23:59.147Z,15.50
2018-09-11T05:26:27.660Z,15.50
2018-09-11T05:28:56.030Z,15.50
2018-09-11T05:31:24.341Z,15.50
2018-09-11T05:33:52.755Z,15.60
2018-09-11T05:36:21.134Z,15.60
2018-09-11T05:38:56.675Z,15.60
2018-09-11T05:41:24.928Z,15.70
2018-09-11T05:43:53.467Z,15.70
2018-09-11T05:46:21.790Z,15.70
2018-09-11T05:48:53.782Z,15.80
2018-09-11T05:51:22.518Z,15.80
2018-09-11T05:53:51.000Z,15.90
2018-09-11T05:56:20.326Z,16.00
2018-09-11T05:58:48.764Z,16.10
2018-09-11T06:01:17.124Z,16.20
2018-09-11T06:03:45.413Z,16.30
2018-09-11T06:06:15.216Z,16.40
2018-09-11T06:08:43.788Z,16.50
2018-09-11T06:11:12.145Z,16.70
2018-09-11T06:13:40.351Z,16.90
2018-09-11T06:16:08.745Z,17.10
2018-09-11T06:18:37.241Z,17.40
2018-09-11T06:21:06.043Z,17.70
2018-09-11T06:23:35.097Z,18.20
2018-09-11T06:26:04.610Z,18.60
2018-09-11T06:28:33.798Z,19.10
2018-09-11T06:31:02.298Z,19.70
2018-09-11T06:33:31.493Z,20.20
2018-09-11T06:36:00.521Z,20.50
2018-09-11T06:38:29.157Z,20.80
2018-09-11T06:40:58.940Z,21.10
2018-09-11T06:43:31.270Z,21.40
2018-09-11T06:46:00.418Z,21.50
2018-09-11T06:48:29.260Z,21.40
2018-09-11T06:50:58.393Z,21.20
2018-09-11T06:53:27.343Z,21.10
2018-09-11T06:55:56.093Z,20.90
2018-09-11T06:58:25.889Z,20.80
2018-09-11T07:00:55.201Z,20.70
2018-09-11T07:03:24.313Z,20.70
2018-09-11T07:05:54.091Z,20.80
2018-09-11T07:08:22.901Z,21.00
2018-09-11T07:10:51.874Z,21.70
2018-09-11T07:13:21.101Z,23.60
2018-09-11T07:15:49.976Z,25.20
2018-09-11T07:18:19.661Z,25.50
2018-09-11T07:20:48.996Z,26.30
2018-09-11T07:23:17.905Z,27.30
2018-09-11T07:25:46.644Z,27.10
2018-09-11T07:28:15.521Z,26.50
2018-09-11T07:30:44.373Z,25.80
2018-09-11T07:33:13.852Z,25.20
2018-09-11T07:35:43.089Z,25.80
2018-09-11T07:38:13.014Z,27.80
2018-09-11T07:40:42.034Z,30.00
2018-09-11T07:43:10.358Z,31.90
2018-09-11T07:45:39.018Z,33.70
2018-09-11T07:48:09.314Z,35.20
2018-09-11T07:50:38.282Z,35.90
2018-09-11T07:53:07.234Z,36.60
2018-09-11T07:55:36.204Z,36.90
2018-09-11T07:58:05.393Z,37.00
2018-09-11T08:00:34.818Z,36.80
2018-09-11T08:03:04.249Z,36.60
2018-09-11T08:05:33.350Z,36.50
2018-09-11T08:08:02.399Z,36.40
2018-09-11T08:10:31.474Z,36.70
2018-09-11T08:13:00.438Z,36.80
2018-09-11T08:15:29.175Z,37.10
2018-09-11T08:17:57.736Z,37.40
2018-09-11T08:20:26.991Z,37.70
2018-09-11T08:22:56.333Z,38.00
2018-09-11T08:25:26.460Z,37.60
2018-09-11T08:27:55.585Z,37.10
2018-09-11T08:30:26.173Z,36.70
2018-09-11T08:32:56.496Z,36.60
2018-09-11T08:35:26.389Z,36.90
2018-09-11T08:37:56.160Z,36.60
2018-09-11T08:40:25.432Z,35.80
2018-09-11T08:42:54.343Z,35.00
2018-09-11T08:45:23.355Z,34.40
2018-09-11T08:47:53.846Z,33.80
2018-09-11T08:50:23.118Z,33.20
2018-09-11T08:52:52.587Z,31.70
2018-09-11T08:55:21.149Z,30.10
2018-09-11T08:57:50.786Z,28.70
2018-09-11T09:00:19.778Z,27.70
2018-09-11T09:02:49.003Z,27.00
2018-09-11T09:05:19.539Z,26.50
2018-09-11T09:07:48.223Z,26.10
2018-09-11T09:10:17.348Z,25.80
2018-09-11T09:12:46.035Z,25.60
2018-09-11T09:15:15.964Z,25.40
2018-09-11T09:17:45.585Z,25.30
2018-09-11T09:20:15.661Z,25.20
2018-09-11T09:22:45.565Z,25.00
2018-09-11T09:25:14.678Z,25.10
2018-09-11T09:27:43.441Z,25.10
2018-09-11T09:30:12.193Z,25.10
2018-09-11T09:32:40.939Z,25.00
2018-09-11T09:35:10.034Z,24.90
2018-09-11T09:37:38.746Z,24.70
2018-09-11T09:40:07.618Z,24.70
2018-09-11T09:42:36.944Z,24.50
2018-09-11T09:45:06.955Z,24.50
2018-09-11T09:47:36.518Z,24.40
2018-09-11T09:50:05.490Z,24.40
2018-09-11T09:52:34.370Z,24.50
2018-09-11T09:55:04.288Z,24.50
2018-09-11T09:57:33.452Z,24.50
2018-09-11T10:00:02.429Z,24.50
2018-09-11T10:02:31.035Z,24.60
2018-09-11T10:05:00.342Z,24.70
2018-09-11T10:07:29.414Z,24.90
2018-09-11T10:09:58.711Z,24.90
2018-09-11T10:12:27.878Z,24.90
2018-09-11T10:14:56.885Z,24.80
2018-09-11T10:17:26.482Z,24.70
2018-09-11T10:19:55.784Z,24.80
2018-09-11T10:22:24.462Z,24.90
2018-09-11T10:24:53.309Z,25.00
2018-09-11T10:27:22.778Z,25.10
2018-09-11T10:29:51.881Z,25.10
2018-09-11T10:32:20.877Z,25.20
2018-09-11T10:34:50.170Z,25.20
2018-09-11T10:37:18.914Z,25.20
2018-09-11T10:39:47.477Z,25.20
2018-09-11T10:42:16.863Z,25.20
2018-09-11T10:44:45.963Z,25.20
2018-09-11T10:47:15.727Z,25.20
2018-09-11T10:49:44.700Z,25.20
2018-09-11T10:52:14.149Z,25.00
2018-09-11T10:54:43.171Z,25.10
2018-09-11T10:57:12.091Z,25.10
2018-09-11T10:59:41.097Z,25.10
2018-09-11T11:02:10.323Z,25.20
2018-09-11T11:04:39.321Z,25.30
2018-09-11T11:07:09.597Z,25.50
2018-09-11T11:09:38.818Z,25.60
2018-09-11T11:12:07.807Z,25.70
2018-09-11T11:14:36.630Z,25.70
2018-09-11T11:17:05.334Z,25.70
2018-09-11T11:19:34.143Z,25.80
2018-09-11T11:22:02.545Z,25.80
2018-09-11T11:24:32.056Z,25.80
2018-09-11T11:29:31.314Z,25.80
2018-09-11T11:31:59.716Z,25.60
2018-09-11T11:34:28.216Z,25.70
2018-09-11T11:36:56.631Z,25.80
2018-09-11T11:39:24.753Z,26.00
2018-09-11T11:41:52.963Z,26.20
2018-09-11T11:44:21.428Z,26.20
2018-09-11T11:46:49.881Z,26.10
2018-09-11T11:49:18.401Z,26.00
2018-09-11T11:51:46.910Z,25.90
2018-09-11T11:54:15.421Z,25.80
2018-09-11T11:56:44.017Z,25.70
2018-09-11T11:59:12.647Z,25.70
2018-09-11T12:01:41.207Z,25.60
2018-09-11T12:04:09.830Z,25.60
2018-09-11T12:06:38.919Z,25.60
2018-09-11T12:09:09.126Z,25.80
2018-09-11T12:11:37.384Z,25.90
2018-09-11T12:14:05.864Z,26.00
2018-09-11T12:16:34.382Z,26.10
2018-09-11T12:19:02.785Z,26.20
2018-09-11T12:21:31.394Z,26.20
2018-09-11T12:23:59.826Z,26.20
2018-09-11T12:26:28.117Z,26.20
2018-09-11T12:28:56.675Z,26.10
2018-09-11T12:31:25.201Z,26.10
2018-09-11T12:33:53.674Z,26.10
2018-09-11T12:36:22.109Z,26.00
2018-09-11T12:38:50.674Z,26.00
2018-09-11T12:41:19.077Z,26.10
2018-09-11T12:43:47.504Z,26.00
2018-09-11T12:46:15.891Z,26.00
2018-09-11T12:48:44.113Z,25.90
2018-09-11T12:51:12.481Z,25.70
2018-09-11T12:53:41.003Z,25.60
2018-09-11T12:56:09.503Z,25.50
2018-09-11T12:58:38.100Z,25.60
2018-09-11T13:01:06.619Z,25.60
2018-09-11T13:03:34.903Z,25.60
2018-09-11T13:06:03.509Z,25.60
2018-09-11T13:08:32.118Z,25.60
2018-09-11T13:11:00.732Z,25.60
2018-09-11T13:13:29.301Z,25.60
2018-09-11T13:15:57.738Z,25.60
2018-09-11T13:18:26.210Z,25.60
2018-09-11T13:20:55.149Z,25.60
2018-09-11T13:23:24.159Z,25.50
2018-09-11T13:25:52.855Z,25.50
2018-09-11T13:28:22.185Z,25.40
2018-09-11T13:30:50.614Z,25.30
2018-09-11T13:33:19.282Z,25.30
2018-09-11T13:35:47.812Z,25.30
2018-09-11T13:38:16.305Z,25.20
2018-09-11T13:40:45.097Z,25.20
2018-09-11T13:43:13.716Z,25.10
2018-09-11T13:45:46.743Z,25.10
2018-09-11T13:48:15.751Z,25.10
2018-09-11T13:50:44.459Z,25.10
2018-09-11T13:53:13.042Z,25.10
2018-09-11T13:55:41.730Z,25.00
2018-09-11T13:58:10.384Z,24.90
2018-09-11T14:00:38.856Z,24.90
2018-09-11T14:03:07.559Z,24.80
2018-09-11T14:05:36.454Z,24.80
2018-09-11T14:08:05.161Z,24.80
2018-09-11T14:10:33.680Z,24.80
2018-09-11T14:13:02.174Z,24.90
2018-09-11T14:15:30.780Z,24.80
2018-09-11T14:17:59.304Z,24.80
2018-09-11T14:20:28.277Z,24.80
2018-09-11T14:22:58.009Z,24.90
2018-09-11T14:25:27.797Z,24.90
2018-09-11T14:27:58.523Z,24.90
2018-09-11T14:30:29.436Z,24.90
2018-09-11T14:32:59.124Z,24.90
2018-09-11T14:35:29.158Z,25.00
2018-09-11T14:37:59.082Z,25.00
2018-09-11T14:40:28.814Z,25.00
2018-09-11T14:42:58.665Z,24.90
2018-09-11T14:45:28.328Z,24.80
2018-09-11T14:47:58.863Z,24.80
2018-09-11T14:50:29.648Z,24.80
2018-09-11T14:52:59.151Z,24.70
2018-09-11T14:55:28.718Z,24.70
2018-09-11T14:57:58.009Z,24.70
2018-09-11T15:00:27.698Z,24.60
2018-09-11T15:02:58.703Z,24.60
2018-09-11T15:05:28.701Z,24.60
2018-09-11T15:07:58.172Z,24.60
2018-09-11T15:10:27.872Z,24.70
2018-09-11T15:12:57.262Z,24.80
2018-09-11T15:15:26.745Z,24.80
2018-09-11T15:17:57.240Z,24.80
2018-09-11T15:20:26.515Z,24.80
2018-09-11T15:22:56.135Z,24.80
2018-09-11T15:25:25.951Z,24.80
2018-09-11T15:27:55.450Z,24.80
2018-09-11T15:30:26.753Z,24.70
2018-09-11T15:32:56.444Z,24.70
2018-09-11T15:35:29.721Z,24.70
2018-09-11T15:37:59.856Z,24.60
2018-09-11T15:40:29.384Z,24.60
2018-09-11T15:42:59.114Z,24.60
2018-09-11T15:45:29.135Z,24.50
2018-09-11T15:47:58.749Z,24.50
2018-09-11T15:50:28.996Z,24.40
2018-09-11T15:52:58.992Z,24.30
2018-09-11T15:55:29.042Z,24.20
2018-09-11T15:57:59.099Z,24.10
2018-09-11T16:00:28.728Z,24.00
2018-09-11T16:02:58.265Z,23.90
2018-09-11T16:05:28.507Z,23.90
2018-09-11T16:07:58.392Z,23.80
2018-09-11T16:10:28.087Z,23.70
2018-09-11T16:13:01.580Z,23.60
2018-09-11T16:15:31.104Z,23.60
2018-09-11T16:18:00.861Z,23.50
2018-09-11T16:20:30.432Z,23.40
2018-09-11T16:22:59.825Z,23.30
2018-09-11T16:25:29.489Z,23.20
2018-09-11T16:27:59.261Z,23.10
2018-09-11T16:30:28.901Z,23.00
2018-09-11T16:32:58.635Z,23.00
2018-09-11T16:35:28.686Z,22.90
2018-09-11T16:37:58.254Z,22.90
2018-09-11T16:40:27.867Z,22.80
2018-09-11T16:42:58.131Z,22.80
2018-09-11T16:45:27.664Z,22.70
2018-09-11T16:47:57.284Z,22.60
2018-09-11T16:50:26.815Z,22.60
2018-09-11T16:52:56.845Z,22.50
2018-09-11T16:55:26.548Z,22.50
2018-09-11T16:57:56.241Z,22.40
2018-09-11T17:00:26.725Z,22.30
2018-09-11T17:02:57.715Z,22.30
2018-09-11T17:05:27.324Z,22.20
2018-09-11T17:07:57.054Z,22.10
2018-09-11T17:10:26.870Z,22.00
2018-09-11T17:12:59.316Z,22.00
2018-09-11T17:15:29.286Z,21.90
2018-09-11T17:17:59.559Z,21.80
2018-09-11T17:20:29.058Z,21.70
2018-09-11T17:22:58.977Z,21.60
2018-09-11T17:25:28.655Z,21.50
2018-09-11T17:27:58.331Z,21.40
2018-09-11T17:30:27.967Z,21.30
2018-09-11T17:32:57.747Z,21.10
2018-09-11T17:35:27.773Z,21.00
2018-09-11T17:37:57.401Z,20.90
2018-09-11T17:40:27.202Z,20.80
2018-09-11T17:42:57.464Z,20.60
2018-09-11T17:45:30.877Z,20.50
2018-09-11T17:48:00.740Z,20.30
2018-09-11T17:50:30.444Z,20.20
2018-09-11T17:52:59.924Z,20.10
2018-09-11T17:55:29.680Z,19.90
2018-09-11T17:57:59.609Z,19.80
2018-09-11T18:00:29.431Z,19.60
2018-09-11T18:03:04.470Z,19.50
2018-09-11T18:05:34.349Z,19.40
2018-09-11T18:08:04.058Z,19.20
2018-09-11T18:10:34.563Z,19.10
2018-09-11T18:13:04.248Z,19.10
2018-09-11T18:15:34.540Z,19.00
2018-09-11T18:18:04.484Z,18.80
2018-09-11T18:20:34.604Z,18.80
2018-09-11T18:23:04.600Z,18.60
2018-09-11T18:25:34.974Z,18.60
2018-09-11T18:28:05.785Z,18.50
2018-09-11T18:30:36.843Z,18.50
2018-09-11T18:33:06.997Z,18.50
2018-09-11T18:35:37.840Z,18.50
2018-09-11T18:38:08.038Z,18.50
2018-09-11T18:40:38.041Z,18.60
2018-09-11T18:43:07.565Z,18.60
2018-09-11T18:45:37.104Z,18.60
2018-09-11T18:48:06.772Z,18.60
2018-09-11T18:50:36.578Z,18.60
2018-09-11T18:53:07.929Z,18.50
2018-09-11T18:55:38.120Z,18.50
2018-09-11T18:58:08.042Z,18.40
2018-09-11T19:00:37.556Z,18.30
2018-09-11T19:03:07.356Z,18.30
2018-09-11T19:05:37.282Z,18.20
2018-09-11T19:08:06.813Z,18.20
2018-09-11T19:10:36.652Z,18.10
2018-09-11T19:13:06.383Z,18.00
2018-09-11T19:15:37.065Z,17.90
2018-09-11T19:18:06.575Z,17.90
2018-09-11T19:20:37.554Z,17.80
2018-09-11T19:23:06.813Z,17.80
2018-09-11T19:25:36.390Z,17.70
2018-09-11T19:28:05.679Z,17.60
2018-09-11T19:30:35.129Z,17.60
2018-09-11T19:33:05.047Z,17.50
2018-09-11T19:35:35.411Z,17.50
2018-09-11T19:38:05.090Z,17.50
2018-09-11T19:40:35.324Z,17.50
2018-09-11T19:43:06.466Z,17.60
2018-09-11T19:45:35.833Z,17.60
2018-09-11T19:48:06.016Z,17.60
2018-09-11T19:50:35.766Z,17.60
2018-09-11T19:53:07.514Z,17.60
2018-09-11T19:55:37.397Z,17.70
2018-09-11T19:58:07.415Z,17.70
2018-09-11T20:00:37.871Z,17.80
2018-09-11T20:03:07.225Z,17.80
2018-09-11T20:05:36.583Z,17.90
2018-09-11T20:08:06.499Z,17.90
2018-09-11T20:10:36.365Z,17.90
2018-09-11T20:13:06.024Z,17.80
2018-09-11T20:15:39.619Z,17.80
2018-09-11T20:18:09.750Z,17.80
2018-09-11T20:20:40.034Z,17.70
2018-09-11T20:23:13.592Z,17.70
2018-09-11T20:25:43.451Z,17.60
2018-09-11T20:28:13.118Z,17.50
2018-09-11T20:30:43.226Z,17.40
2018-09-11T20:33:13.236Z,17.40
2018-09-11T20:35:42.554Z,17.30
2018-09-11T20:38:12.349Z,17.20
2018-09-11T20:40:41.959Z,17.20
2018-09-11T20:43:11.996Z,17.10
2018-09-11T20:45:41.536Z,17.00
2018-09-11T20:48:15.564Z,17.00
2018-09-11T20:50:45.426Z,16.90
2018-09-11T20:53:15.304Z,16.80
2018-09-11T20:55:45.049Z,16.70
2018-09-11T20:58:14.657Z,16.70
2018-09-11T21:00:44.505Z,16.60
2018-09-11T21:03:13.841Z,16.60
2018-09-11T21:05:43.484Z,16.50
2018-09-11T21:08:14.267Z,16.50
2018-09-11T21:10:43.413Z,16.40
2018-09-11T21:13:13.408Z,16.40
2018-09-11T21:15:43.575Z,16.40
2018-09-11T21:18:16.659Z,16.30
2018-09-11T21:20:46.555Z,16.30
2018-09-11T21:23:16.558Z,16.30
2018-09-11T21:25:46.304Z,16.20
2018-09-11T21:28:16.390Z,16.20
2018-09-11T21:30:45.969Z,16.20
2018-09-11T21:33:16.216Z,16.10
2018-09-11T21:35:45.690Z,16.10
2018-09-11T21:38:19.258Z,16.10
2018-09-11T21:40:49.098Z,16.10
2018-09-11T21:43:18.871Z,16.10
2018-09-11T21:45:52.439Z,16.10
2018-09-11T21:48:25.736Z,16.10
2018-09-11T21:50:55.411Z,16.00
2018-09-11T21:53:25.385Z,16.00
2018-09-11T21:55:55.581Z,16.00
2018-09-11T21:58:25.649Z,15.90
2018-09-11T22:01:00.195Z,15.90
2018-09-11T22:03:29.872Z,15.90
2018-09-11T22:05:59.268Z,15.80
2018-09-11T22:08:28.824Z,15.80
2018-09-11T22:10:59.318Z,15.80
2018-09-11T22:13:28.708Z,15.70
2018-09-11T22:15:58.586Z,15.70
2018-09-11T22:18:28.249Z,15.60
2018-09-11T22:20:59.989Z,15.60
2018-09-11T22:23:29.797Z,15.60
2018-09-11T22:25:59.248Z,15.50
2018-09-11T22:28:29.092Z,15.50
2018-09-11T22:30:58.467Z,15.50
2018-09-11T22:33:28.338Z,15.40
2018-09-11T22:36:01.551Z,15.40
2018-09-11T22:38:31.143Z,15.30
2018-09-11T22:41:00.855Z,15.30
2018-09-11T22:43:30.437Z,15.30
2018-09-11T22:46:00.157Z,15.30
2018-09-11T22:48:29.701Z,15.20
2018-09-11T22:50:59.183Z,15.10
2018-09-11T22:53:28.967Z,15.10
2018-09-11T22:55:58.484Z,15.10
2018-09-11T22:58:30.122Z,15.00
2018-09-11T23:00:59.756Z,15.00
2018-09-11T23:03:29.614Z,15.00
2018-09-11T23:05:59.113Z,15.00
2018-09-11T23:08:29.118Z,14.90
2018-09-11T23:10:58.923Z,14.90
2018-09-11T23:13:28.595Z,14.90
2018-09-11T23:15:58.185Z,14.90
2018-09-11T23:18:27.508Z,14.80
2018-09-11T23:20:57.487Z,14.80
2018-09-11T23:23:29.562Z,14.80
2018-09-11T23:25:59.345Z,14.80
2018-09-11T23:28:29.353Z,14.80
2018-09-11T23:30:58.603Z,14.80
2018-09-11T23:33:28.154Z,14.70
2018-09-11T23:35:58.121Z,14.70
2018-09-11T23:38:27.833Z,14.70
2018-09-11T23:40:57.426Z,14.70
2018-09-11T23:43:30.694Z,14.70
2018-09-11T23:46:00.275Z,14.70
2018-09-11T23:48:29.803Z,14.60
2018-09-11T23:51:00.360Z,14.60
2018-09-11T23:53:30.232Z,14.60
2018-09-11T23:55:59.783Z,14.50
2018-09-11T23:58:29.115Z,14.50
